| time (UTC) | temp F | wind direction | speed MPH | gust MPH | rain 1hr in | rain 24hr in | rain mn in | humidity % | barometer mb |
| 20260903092104 | 56 | 221 | 1.0 | 3.0 | 0.10 | 0.97 | 0.29 | 90 | 1004.7 |
| 20260903091605 | 56 | 221 | 1.0 | 3.0 | 0.13 | 0.97 | 0.29 | 90 | 1004.8 |
| 20260903091106 | 55 | 221 | 1.0 | 3.0 | 0.16 | 0.97 | 0.29 | 90 | 1004.8 |
| 20260903090605 | 55 | 221 | 1.0 | 3.0 | 0.16 | 0.96 | 0.28 | 90 | 1004.9 |
| 20260903090105 | 55 | 220 | 1.0 | 3.0 | 0.14 | 0.94 | 0.26 | 90 | 1005.0 |
| 20260903085605 | 55 | 219 | 1.0 | 6.0 | 0.12 | 0.91 | 0.23 | 90 | 1004.9 |
| 20260903085105 | 56 | 219 | 2.0 | 6.0 | 0.11 | 0.89 | 0.21 | 90 | 1004.8 |
| 20260903084605 | 56 | 228 | 1.0 | 6.0 | 0.12 | 0.89 | 0.21 | 90 | 1004.9 |
| 20260903084105 | 56 | 213 | 1.0 | 5.0 | 0.17 | 0.89 | 0.21 | 90 | 1004.9 |
| 20260903083605 | 56 | 195 | 1.0 | 5.0 | 0.17 | 0.89 | 0.21 | 90 | 1005.0 |
| 20260903083105 | 56 | 195 | 1.0 | 3.0 | 0.16 | 0.88 | 0.20 | 90 | 1005.0 |
| 20260903082605 | 57 | 195 | 1.0 | 3.0 | 0.16 | 0.88 | 0.20 | 90 | 1005.1 |
| 20260903082104 | 57 | 195 | 1.0 | 8.0 | 0.15 | 0.87 | 0.19 | 90 | 1005.1 |
| 20260903081605 | 57 | 208 | 1.0 | 8.0 | 0.12 | 0.84 | 0.16 | 90 | 1005.1 |
| 20260903080605 | 57 | 195 | 3.0 | 5.0 | 0.10 | 0.80 | 0.12 | 90 | 1004.9 |
| 20260903075605 | 58 | 195 | 1.0 | 3.0 | 0.13 | 0.79 | 0.11 | 90 | 1004.9 |
| 20260903075107 | 58 | 195 | 1.0 | 5.0 | 0.15 | 0.78 | 0.10 | 90 | 1004.9 |
| 20260903074605 | 58 | 195 | 2.0 | 5.0 | 0.15 | 0.77 | 0.09 | 90 | 1004.9 |
| 20260903074104 | 58 | 195 | 2.0 | 3.0 | 0.10 | 0.72 | 0.04 | 90 | 1004.9 |
| 20260903073605 | 58 | 197 | 1.0 | 3.0 | 0.10 | 0.72 | 0.04 | 90 | 1004.8 |
| 20260903073106 | 58 | 195 | 1.0 | 3.0 | 0.10 | 0.72 | 0.04 | 90 | 1004.7 |
| 20260903072605 | 58 | 195 | 1.0 | 3.0 | 0.10 | 0.72 | 0.04 | 89 | 1004.8 |
| 20260903072105 | 58 | 195 | 1.0 | 3.0 | 0.10 | 0.72 | 0.04 | 89 | 1004.8 |
| 20260903071605 | 58 | 195 | 0.0 | 3.0 | 0.10 | 0.72 | 0.04 | 89 | 1004.8 |
| 20260903071109 | 58 | 195 | 1.0 | 3.0 | 0.10 | 0.71 | 0.03 | 90 | 1004.7 |
| 20260903070606 | 58 | 195 | 1.0 | 5.0 | 0.09 | 0.70 | 0.02 | 89 | 1004.8 |
| 20260903070107 | 58 | 195 | 2.0 | 5.0 | 0.07 | 0.68 | 0.00 | 89 | 1004.7 |
| 20260903065604 | 58 | 195 | 1.0 | 3.0 | 0.07 | 0.67 | 0.67 | 89 | 1004.8 |
| 20260903065105 | 58 | 195 | 1.0 | 5.0 | 0.04 | 0.64 | 0.64 | 89 | 1004.8 |
| 20260903064606 | 58 | 195 | 2.0 | 5.0 | 0.02 | 0.62 | 0.62 | 89 | 1004.8 |
| 20260903064105 | 58 | 213 | 2.0 | 5.0 | 0.02 | 0.62 | 0.62 | 89 | 1004.6 |
| 20260903063606 | 58 | 195 | 2.0 | 5.0 | 0.02 | 0.62 | 0.62 | 89 | 1004.6 |
| 20260903062605 | 58 | 195 | 1.0 | 3.0 | 0.02 | 0.62 | 0.62 | 89 | 1004.8 |
| 20260903062105 | 58 | 195 | 1.0 | 3.0 | 0.02 | 0.62 | 0.62 | 89 | 1004.8 |
| 20260903061605 | 58 | 195 | 0.0 | 3.0 | 0.02 | 0.62 | 0.62 | 89 | 1004.8 |
| 20260903061105 | 58 | 195 | 1.0 | 3.0 | 0.01 | 0.61 | 0.61 | 89 | 1004.7 |
| 20260903060604 | 58 | 195 | 1.0 | 3.0 | 0.01 | 0.61 | 0.61 | 89 | 1004.6 |
| 20260903060105 | 58 | 195 | 1.0 | 3.0 | 0.01 | 0.61 | 0.61 | 89 | 1004.7 |
| 20260903055604 | 58 | 202 | 1.0 | 3.0 | 0.00 | 0.60 | 0.60 | 89 | 1004.8 |
| 20260903055105 | 58 | 195 | 1.0 | 3.0 | 0.00 | 0.60 | 0.60 | 88 | 1004.8 |
| 20260903054605 | 58 | 202 | 2.0 | 3.0 | 0.00 | 0.60 | 0.60 | 88 | 1004.8 |
| 20260903054104 | 58 | 234 | 1.0 | 3.0 | 0.00 | 0.60 | 0.60 | 88 | 1004.9 |
| 20260903053606 | 58 | 195 | 1.0 | 3.0 | 0.00 | 0.60 | 0.60 | 88 | 1004.9 |
| 20260903053106 | 58 | 195 | 1.0 | 3.0 | 0.00 | 0.60 | 0.60 | 88 | 1005.0 |
| 20260903052606 | 58 | 195 | 1.0 | 3.0 | 0.00 | 0.60 | 0.60 | 88 | 1004.9 |
| 20260903052105 | 58 | 195 | 1.0 | 3.0 | 0.00 | 0.60 | 0.60 | 88 | 1004.9 |
| 20260903051605 | 58 | 195 | 1.0 | 3.0 | 0.00 | 0.60 | 0.60 | 88 | 1004.9 |
| 20260903051104 | 58 | 195 | 1.0 | 3.0 | 0.00 | 0.60 | 0.60 | 88 | 1004.8 |
| 20260903050605 | 58 | 195 | 2.0 | 3.0 | 0.00 | 0.60 | 0.60 | 88 | 1004.9 |
| 20260903045604 | 58 | 195 | 2.0 | 3.0 | 0.00 | 0.60 | 0.60 | 88 | 1004.9 |
| 20260903045105 | 58 | 195 | 1.0 | 3.0 | 0.00 | 0.60 | 0.60 | 88 | 1004.9 |
| 20260903044605 | 58 | 195 | 1.0 | 3.0 | 0.00 | 0.60 | 0.60 | 87 | 1004.9 |
| 20260903043106 | 58 | 195 | 0.0 | 3.0 | 0.00 | 0.60 | 0.60 | 87 | 1004.8 |
| 20260903042605 | 58 | 195 | 1.0 | 3.0 | 0.00 | 0.60 | 0.60 | 87 | 1004.7 |
| 20260903042105 | 58 | 195 | 0.0 | 2.0 | 0.00 | 0.60 | 0.60 | 87 | 1004.7 |
| 20260903041605 | 58 | 195 | 1.0 | 3.0 | 0.00 | 0.60 | 0.60 | 87 | 1004.7 |
| 20260903040605 | 58 | 229 | 1.0 | 3.0 | 0.00 | 0.60 | 0.60 | 86 | 1004.6 |
| 20260903040106 | 57 | 216 | 1.0 | 5.0 | 0.00 | 0.60 | 0.60 | 86 | 1004.6 |
| 20260903035105 | 57 | 195 | 0.0 | 3.0 | 0.00 | 0.60 | 0.60 | 85 | 1004.5 |
| 20260903034104 | 57 | 195 | 1.0 | 3.0 | 0.00 | 0.60 | 0.60 | 84 | 1004.4 |
| 20260903033605 | 57 | 195 | 0.0 | 3.0 | 0.00 | 0.60 | 0.60 | 84 | 1004.4 |
| 20260903033105 | 57 | 195 | 1.0 | 3.0 | 0.00 | 0.60 | 0.60 | 84 | 1004.4 |
| 20260903032605 | 57 | 195 | 1.0 | 3.0 | 0.00 | 0.60 | 0.60 | 84 | 1004.4 |
| 20260903031105 | 58 | 195 | 0.0 | 2.0 | 0.00 | 0.60 | 0.60 | 83 | 1004.5 |
| 20260903030605 | 58 | 195 | 0.0 | 3.0 | 0.00 | 0.60 | 0.60 | 83 | 1004.4 |
| 20260903030105 | 59 | 195 | 0.0 | 3.0 | 0.00 | 0.60 | 0.60 | 83 | 1004.4 |
| 20260903025104 | 59 | 195 | 1.0 | 6.0 | 0.00 | 0.60 | 0.60 | 83 | 1004.3 |
| 20260903024606 | 59 | 195 | 1.0 | 5.0 | 0.00 | 0.60 | 0.60 | 83 | 1004.4 |
| 20260903023606 | 59 | 195 | 1.0 | 3.0 | 0.00 | 0.60 | 0.60 | 82 | 1004.2 |
| 20260903023105 | 60 | 195 | 1.0 | 3.0 | 0.00 | 0.60 | 0.60 | 82 | 1004.2 |
| 20260903022605 | 60 | 195 | 1.0 | 3.0 | 0.00 | 0.60 | 0.60 | 82 | 1004.2 |
| 20260903022104 | 60 | 195 | 1.0 | 3.0 | 0.00 | 0.60 | 0.60 | 82 | 1004.3 |
| 20260903021605 | 60 | 195 | 1.0 | 5.0 | 0.00 | 0.60 | 0.60 | 82 | 1004.3 |
| 20260903021106 | 61 | 195 | 1.0 | 5.0 | 0.00 | 0.60 | 0.60 | 82 | 1004.2 |
| 20260903020606 | 61 | 208 | 1.0 | 3.0 | 0.00 | 0.60 | 0.60 | 82 | 1004.2 |
| 20260903020106 | 61 | 232 | 1.0 | 3.0 | 0.00 | 0.60 | 0.60 | 82 | 1004.2 |
| 20260903015604 | 61 | 231 | 2.0 | 3.0 | 0.00 | 0.60 | 0.60 | 82 | 1004.1 |
| 20260903015106 | 61 | 226 | 1.0 | 5.0 | 0.00 | 0.60 | 0.60 | 82 | 1004.1 |
| 20260903014607 | 62 | 232 | 2.0 | 5.0 | 0.00 | 0.60 | 0.60 | 82 | 1004.2 |
| 20260903014107 | 62 | 213 | 1.0 | 3.0 | 0.00 | 0.60 | 0.60 | 82 | 1004.2 |
| 20260903013605 | 62 | 228 | 1.0 | 3.0 | 0.00 | 0.60 | 0.60 | 82 | 1004.2 |
| 20260903013105 | 62 | 195 | 1.0 | 3.0 | 0.00 | 0.60 | 0.60 | 82 | 1004.2 |
| 20260903012106 | 62 | 203 | 1.0 | 3.0 | 0.00 | 0.60 | 0.60 | 81 | 1004.2 |
| 20260903011633 | 62 | 327 | 0.0 | 3.0 | 0.00 | 0.60 | 0.60 | 80 | 1004.2 |
| 20260903011104 | 62 | 215 | 1.0 | 3.0 | 0.00 | 0.60 | 0.60 | 80 | 1004.2 |
| 20260903010605 | 62 | 213 | 1.0 | 3.0 | 0.00 | 0.60 | 0.60 | 80 | 1004.2 |
| 20260903010105 | 62 | 211 | 1.0 | 3.0 | 0.00 | 0.60 | 0.60 | 81 | 1004.2 |
| 20260903005604 | 63 | 216 | 1.0 | 6.0 | 0.00 | 0.60 | 0.60 | 81 | 1004.1 |
| 20260903005105 | 63 | 215 | 1.0 | 6.0 | 0.00 | 0.60 | 0.60 | 81 | 1004.1 |
| 20260903004605 | 63 | 197 | 2.0 | 6.0 | 0.00 | 0.60 | 0.60 | 82 | 1004.1 |
| 20260903004106 | 63 | 212 | 1.0 | 3.0 | 0.00 | 0.60 | 0.60 | 82 | 1004.1 |
| 20260903003604 | 63 | 210 | 1.0 | 3.0 | 0.00 | 0.60 | 0.60 | 82 | 1004.0 |
| 20260903003104 | 63 | 212 | 1.0 | 3.0 | 0.00 | 0.63 | 0.60 | 82 | 1004.0 |
| 20260903002605 | 63 | 213 | 1.0 | 3.0 | 0.00 | 0.63 | 0.60 | 82 | 1004.1 |
| 20260903002105 | 63 | 211 | 1.0 | 3.0 | 0.00 | 0.63 | 0.60 | 82 | 1003.9 |
| 20260903001604 | 63 | 210 | 1.0 | 3.0 | 0.00 | 0.63 | 0.60 | 82 | 1004.0 |
| 20260903001105 | 64 | 212 | 0.0 | 3.0 | 0.00 | 0.63 | 0.60 | 83 | 1003.9 |
| 20260903000604 | 64 | 218 | 1.0 | 3.0 | 0.00 | 0.63 | 0.60 | 83 | 1003.9 |
| 20260903000104 | 64 | 206 | 1.0 | 3.0 | 0.00 | 0.63 | 0.60 | 84 | 1003.8 |
| 20260902235604 | 64 | 211 | 1.0 | 5.0 | 0.00 | 0.63 | 0.60 | 84 | 1003.6 |
| 20260902235104 | 63 | 195 | 1.0 | 5.0 | 0.00 | 0.63 | 0.60 | 84 | 1003.7 |
| 20260902234606 | 63 | 208 | 1.0 | 3.0 | 0.00 | 0.63 | 0.60 | 85 | 1003.6 |
| 20260902234106 | 63 | 211 | 1.0 | 3.0 | 0.00 | 0.63 | 0.60 | 85 | 1003.6 |
| 20260902233604 | 64 | 205 | 1.0 | 5.0 | 0.00 | 0.63 | 0.60 | 86 | 1003.5 |
| 20260902233115 | 64 | 210 | 2.0 | 5.0 | 0.00 | 0.63 | 0.60 | 87 | 1003.6 |
| 20260902232604 | 63 | 222 | 2.0 | 5.0 | 0.00 | 0.63 | 0.60 | 87 | 1003.6 |
| 20260902232110 | 63 | 209 | 1.0 | 3.0 | 0.00 | 0.63 | 0.60 | 88 | 1003.4 |
| 20260902231612 | 63 | 209 | 1.0 | 3.0 | 0.00 | 0.63 | 0.60 | 89 | 1003.4 |
| 20260902231105 | 63 | 200 | 1.0 | 3.0 | 0.00 | 0.63 | 0.60 | 89 | 1003.3 |
| 20260902230614 | 63 | 195 | 1.0 | 3.0 | 0.00 | 0.63 | 0.60 | 90 | 1003.2 |
| 20260902230105 | 63 | 213 | 2.0 | 3.0 | 0.00 | 0.63 | 0.60 | 90 | 1003.1 |
| 20260902225109 | 63 | 213 | 1.0 | 3.0 | 0.00 | 0.63 | 0.60 | 91 | 1003.0 |
| 20260902224604 | 63 | 213 | 1.0 | 3.0 | 0.00 | 0.63 | 0.60 | 91 | 1002.9 |
| 20260902224105 | 62 | 203 | 1.0 | 3.0 | 0.00 | 0.63 | 0.60 | 91 | 1002.9 |
| 20260902223605 | 62 | 212 | 1.0 | 3.0 | 0.00 | 0.63 | 0.60 | 91 | 1002.8 |
| 20260902223105 | 62 | 210 | 1.0 | 5.0 | 0.00 | 0.63 | 0.60 | 92 | 1002.8 |
| 20260902222604 | 62 | 209 | 1.0 | 5.0 | 0.00 | 0.63 | 0.60 | 91 | 1002.8 |
| 20260902222105 | 61 | 212 | 2.0 | 3.0 | 0.00 | 0.63 | 0.60 | 91 | 1002.7 |
| 20260902221604 | 60 | 223 | 1.0 | 3.0 | 0.00 | 0.63 | 0.60 | 91 | 1002.6 |
| 20260902221104 | 59 | 209 | 1.0 | 5.0 | 0.00 | 0.63 | 0.60 | 91 | 1002.6 |
| 20260902220605 | 59 | 209 | 1.0 | 5.0 | 0.00 | 0.63 | 0.60 | 91 | 1002.5 |
| 20260902220104 | 59 | 210 | 1.0 | 3.0 | 0.00 | 0.63 | 0.60 | 91 | 1002.4 |
| 20260902215606 | 59 | 216 | 1.0 | 3.0 | 0.00 | 0.63 | 0.60 | 91 | 1002.3 |
| 20260902215105 | 59 | 219 | 1.0 | 3.0 | 0.00 | 0.63 | 0.60 | 91 | 1002.1 |
| 20260902214604 | 59 | 219 | 1.0 | 3.0 | 0.00 | 0.63 | 0.60 | 91 | 1002.0 |
| 20260902214106 | 59 | 202 | 1.0 | 3.0 | 0.00 | 0.63 | 0.60 | 91 | 1001.9 |
| 20260902213106 | 59 | 218 | 1.0 | 6.0 | 0.00 | 0.63 | 0.60 | 91 | 1001.5 |
| 20260902212604 | 59 | 231 | 1.0 | 6.0 | 0.00 | 0.63 | 0.60 | 91 | 1001.3 |
| 20260902212104 | 59 | 224 | 2.0 | 8.0 | 0.00 | 0.63 | 0.60 | 91 | 1001.1 |
| 20260902211604 | 60 | 219 | 2.0 | 8.0 | 0.01 | 0.63 | 0.60 | 91 | 1000.8 |
| 20260902211106 | 59 | 226 | 2.0 | 6.0 | 0.01 | 0.63 | 0.60 | 91 | 1000.7 |
| 20260902210112 | 59 | 203 | 2.0 | 12.0 | 0.04 | 0.63 | 0.60 | 91 | 1000.1 |
| 20260902205605 | 59 | 195 | 3.0 | 12.0 | 0.04 | 0.63 | 0.60 | 91 | 999.6 |
| 20260902205109 | 58 | 195 | 2.0 | 12.0 | 0.05 | 0.63 | 0.60 | 91 | 999.6 |
| 20260902204604 | 58 | 205 | 5.0 | 12.0 | 0.05 | 0.63 | 0.60 | 91 | 999.4 |
| 20260902204104 | 58 | 215 | 3.0 | 8.0 | 0.07 | 0.63 | 0.60 | 91 | 999.3 |
| 20260902203605 | 58 | 197 | 3.0 | 10.0 | 0.08 | 0.63 | 0.60 | 91 | 999.4 |
| 20260902203113 | 58 | 207 | 3.0 | 10.0 | 0.08 | 0.63 | 0.60 | 91 | 999.6 |
| 20260902202608 | 58 | 219 | 3.0 | 10.0 | 0.08 | 0.63 | 0.60 | 91 | 999.5 |
| 20260902202106 | 58 | 223 | 2.0 | 10.0 | 0.08 | 0.63 | 0.60 | 91 | 999.4 |
| 20260902201106 | 58 | 195 | 2.0 | 8.0 | 0.09 | 0.62 | 0.59 | 91 | 999.6 |
| 20260902200609 | 58 | 207 | 3.0 | 10.0 | 0.08 | 0.60 | 0.57 | 91 | 999.5 |
| 20260902200104 | 58 | 220 | 3.0 | 10.0 | 0.07 | 0.59 | 0.56 | 91 | 999.6 |
| 20260902195603 | 58 | 223 | 3.0 | 8.0 | 0.07 | 0.59 | 0.56 | 90 | 999.5 |
| 20260902195104 | 58 | 196 | 2.0 | 9.0 | 0.06 | 0.58 | 0.55 | 91 | 999.7 |
| 20260902194604 | 58 | 225 | 3.0 | 9.0 | 0.06 | 0.58 | 0.55 | 90 | 999.9 |
| 20260902194104 | 58 | 210 | 3.0 | 10.0 | 0.04 | 0.56 | 0.53 | 90 | 1000.0 |
| 20260902193605 | 58 | 202 | 2.0 | 10.0 | 0.04 | 0.55 | 0.52 | 90 | 999.9 |
| 20260902193105 | 58 | 208 | 3.0 | 12.0 | 0.05 | 0.55 | 0.52 | 90 | 999.9 |
| 20260902192604 | 58 | 223 | 2.0 | 12.0 | 0.07 | 0.55 | 0.52 | 90 | 1000.0 |
| 20260902192104 | 58 | 219 | 3.0 | 12.0 | 0.07 | 0.55 | 0.52 | 90 | 1000.2 |
| 20260902191604 | 58 | 219 | 3.0 | 8.0 | 0.06 | 0.54 | 0.51 | 90 | 1000.2 |
| 20260902191105 | 59 | 222 | 2.0 | 6.0 | 0.05 | 0.53 | 0.50 | 91 | 1000.2 |
| 20260902190605 | 59 | 202 | 2.0 | 6.0 | 0.04 | 0.52 | 0.49 | 91 | 1000.2 |
| 20260902185105 | 58 | 226 | 2.0 | 6.0 | 0.06 | 0.52 | 0.49 | 90 | 1000.5 |
| 20260902184604 | 58 | 196 | 2.0 | 6.0 | 0.07 | 0.52 | 0.49 | 90 | 1000.6 |
| 20260902184104 | 58 | 232 | 2.0 | 8.0 | 0.07 | 0.52 | 0.49 | 90 | 1000.7 |
| 20260902183604 | 58 | 200 | 2.0 | 8.0 | 0.06 | 0.51 | 0.48 | 90 | 1000.9 |
| 20260902183105 | 58 | 230 | 0.0 | 6.0 | 0.05 | 0.50 | 0.47 | 90 | 1001.1 |
| 20260902182604 | 58 | 227 | 2.0 | 6.0 | 0.04 | 0.48 | 0.45 | 90 | 1001.2 |
| 20260902182104 | 59 | 218 | 1.0 | 9.0 | 0.04 | 0.48 | 0.45 | 90 | 1001.3 |
| 20260902181604 | 59 | 195 | 2.0 | 9.0 | 0.05 | 0.48 | 0.45 | 90 | 1001.4 |
| 20260902181105 | 58 | 213 | 2.0 | 9.0 | 0.06 | 0.48 | 0.45 | 90 | 1001.6 |
| 20260902180604 | 59 | 225 | 1.0 | 5.0 | 0.07 | 0.48 | 0.45 | 90 | 1001.6 |
| 20260902180104 | 58 | 229 | 1.0 | 5.0 | 0.07 | 0.47 | 0.44 | 90 | 1001.8 |
| 20260902175106 | 58 | 222 | 2.0 | 6.0 | 0.08 | 0.46 | 0.43 | 90 | 1001.9 |
| 20260902174604 | 58 | 225 | 1.0 | 3.0 | 0.07 | 0.45 | 0.42 | 90 | 1001.9 |
| 20260902174104 | 58 | 226 | 1.0 | 6.0 | 0.09 | 0.45 | 0.42 | 90 | 1002.0 |
| 20260902173605 | 58 | 225 | 2.0 | 6.0 | 0.10 | 0.45 | 0.42 | 90 | 1002.1 |
| 20260902172606 | 58 | 224 | 2.0 | 5.0 | 0.12 | 0.44 | 0.41 | 90 | 1002.2 |
| 20260902172104 | 58 | 219 | 1.0 | 5.0 | 0.13 | 0.44 | 0.41 | 90 | 1002.4 |
| 20260902171606 | 58 | 226 | 1.0 | 3.0 | 0.13 | 0.43 | 0.40 | 90 | 1002.4 |
| 20260902171104 | 58 | 219 | 1.0 | 6.0 | 0.14 | 0.42 | 0.39 | 90 | 1002.5 |
| 20260902170604 | 58 | 229 | 0.0 | 6.0 | 0.14 | 0.41 | 0.38 | 90 | 1002.5 |
| 20260902165605 | 58 | 213 | 1.0 | 3.0 | 0.14 | 0.39 | 0.36 | 90 | 1002.6 |
| 20260902165104 | 58 | 218 | 1.0 | 5.0 | 0.13 | 0.38 | 0.35 | 90 | 1002.6 |
| 20260902164605 | 58 | 218 | 1.0 | 5.0 | 0.13 | 0.38 | 0.35 | 89 | 1002.6 |
| 20260902164104 | 58 | 230 | 2.0 | 6.0 | 0.11 | 0.36 | 0.33 | 89 | 1002.7 |
| 20260902163604 | 58 | 225 | 1.0 | 6.0 | 0.11 | 0.35 | 0.32 | 89 | 1002.7 |
| 20260902163104 | 58 | 232 | 0.0 | 3.0 | 0.11 | 0.34 | 0.31 | 89 | 1002.8 |
| 20260902162605 | 58 | 232 | 0.0 | 5.0 | 0.09 | 0.32 | 0.29 | 89 | 1002.8 |
| 20260902162104 | 58 | 229 | 0.0 | 5.0 | 0.09 | 0.31 | 0.28 | 89 | 1002.9 |
| 20260902161605 | 58 | 223 | 1.0 | 6.0 | 0.09 | 0.30 | 0.27 | 89 | 1002.8 |
| 20260902161104 | 58 | 216 | 0.0 | 6.0 | 0.08 | 0.28 | 0.25 | 89 | 1002.9 |
| 20260902160605 | 58 | 196 | 0.0 | 3.0 | 0.10 | 0.27 | 0.24 | 89 | 1003.0 |
| 20260902160105 | 58 | 195 | 1.0 | 9.0 | 0.11 | 0.26 | 0.23 | 89 | 1003.0 |
| 20260902155603 | 58 | 230 | 1.0 | 9.0 | 0.11 | 0.25 | 0.22 | 89 | 1002.9 |
| 20260902155105 | 58 | 195 | 2.0 | 5.0 | 0.12 | 0.25 | 0.22 | 89 | 1003.1 |
| 20260902154613 | 58 | 211 | 2.0 | 5.0 | 0.13 | 0.25 | 0.22 | 89 | 1003.1 |
| 20260902154104 | 58 | 226 | 2.0 | 5.0 | 0.14 | 0.25 | 0.22 | 88 | 1003.1 |
| 20260902153107 | 58 | 228 | 1.0 | 3.0 | 0.16 | 0.23 | 0.20 | 88 | 1003.1 |
| 20260902152605 | 58 | 223 | 1.0 | 7.0 | 0.16 | 0.23 | 0.20 | 88 | 1003.1 |
| 20260902152103 | 58 | 218 | 1.0 | 7.0 | 0.16 | 0.22 | 0.19 | 88 | 1003.2 |
| 20260902151606 | 58 | 224 | 2.0 | 5.0 | 0.15 | 0.21 | 0.18 | 88 | 1003.1 |
| 20260902151105 | 59 | 220 | 1.0 | 5.0 | 0.15 | 0.20 | 0.17 | 88 | 1003.2 |
| 20260902150105 | 59 | 220 | 1.0 | 3.0 | 0.12 | 0.15 | 0.12 | 87 | 1003.3 |
| 20260902145604 | 59 | 224 | 1.0 | 2.0 | 0.11 | 0.14 | 0.11 | 87 | 1003.4 |
| 20260902145104 | 59 | 222 | 1.0 | 3.0 | 0.10 | 0.13 | 0.10 | 87 | 1003.4 |
| 20260902144604 | 59 | 195 | 1.0 | 3.0 | 0.09 | 0.12 | 0.09 | 87 | 1003.5 |
| 20260902144104 | 59 | 195 | 1.0 | 3.0 | 0.08 | 0.11 | 0.08 | 87 | 1003.5 |
| 20260902143605 | 59 | 222 | 1.0 | 9.0 | 0.05 | 0.08 | 0.05 | 87 | 1003.5 |
| 20260902142605 | 59 | 222 | 1.0 | 5.0 | 0.04 | 0.07 | 0.04 | 86 | 1003.7 |
| 20260902142104 | 59 | 195 | 0.0 | 6.0 | 0.03 | 0.06 | 0.03 | 86 | 1003.8 |
| 20260902141105 | 59 | 228 | 1.0 | 3.0 | 0.02 | 0.05 | 0.02 | 86 | 1003.8 |
| 20260902140604 | 59 | 227 | 1.0 | 3.0 | 0.00 | 0.03 | 0.00 | 86 | 1003.9 |
| 20260902140104 | 59 | 222 | 1.0 | 3.0 | 0.00 | 0.03 | 0.00 | 86 | 1003.8 |
| 20260902135607 | 59 | 195 | 1.0 | 3.0 | 0.00 | 0.03 | 0.00 | 86 | 1003.8 |
| 20260902135103 | 59 | 224 | 2.0 | 6.0 | 0.00 | 0.03 | 0.00 | 86 | 1003.8 |
| 20260902133104 | 59 | 227 | 1.0 | 3.0 | 0.00 | 0.03 | 0.00 | 86 | 1004.0 |
| 20260902132606 | 59 | 221 | 1.0 | 3.0 | 0.00 | 0.03 | 0.00 | 86 | 1004.1 |
| 20260902132111 | 59 | 195 | 2.0 | 3.0 | 0.00 | 0.03 | 0.00 | 87 | 1004.0 |
| 20260902131604 | 59 | 195 | 1.0 | 6.0 | 0.00 | 0.03 | 0.00 | 87 | 1004.1 |
| 20260902131103 | 59 | 215 | 1.0 | 7.0 | 0.00 | 0.03 | 0.00 | 87 | 1004.2 |
| 20260902130105 | 59 | 232 | 2.0 | 7.0 | 0.00 | 0.03 | 0.00 | 87 | 1004.4 |
| 20260902125605 | 59 | 195 | 2.0 | 6.0 | 0.00 | 0.03 | 0.00 | 87 | 1004.5 |
| 20260902124605 | 59 | 229 | 1.0 | 3.0 | 0.00 | 0.03 | 0.00 | 87 | 1004.6 |
| 20260902124105 | 59 | 224 | 1.0 | 3.0 | 0.00 | 0.03 | 0.00 | 87 | 1004.7 |
| 20260902123603 | 59 | 195 | 1.0 | 3.0 | 0.00 | 0.03 | 0.00 | 87 | 1004.8 |
| 20260902123104 | 59 | 200 | 1.0 | 3.0 | 0.00 | 0.03 | 0.00 | 87 | 1004.9 |
| 20260902122106 | 59 | 195 | 1.0 | 3.0 | 0.00 | 0.03 | 0.00 | 87 | 1005.0 |
| 20260902121103 | 59 | 195 | 2.0 | 5.0 | 0.00 | 0.03 | 0.00 | 86 | 1005.3 |
| 20260902120603 | 59 | 207 | 2.0 | 5.0 | 0.00 | 0.03 | 0.00 | 86 | 1005.2 |
| 20260902120105 | 59 | 222 | 2.0 | 8.0 | 0.00 | 0.03 | 0.00 | 87 | 1005.3 |
| 20260902115603 | 59 | 195 | 2.0 | 8.0 | 0.00 | 0.03 | 0.00 | 87 | 1005.3 |
| 20260902115105 | 59 | 195 | 2.0 | 5.0 | 0.00 | 0.03 | 0.00 | 87 | 1005.4 |
| 20260902114604 | 59 | 209 | 2.0 | 5.0 | 0.00 | 0.03 | 0.00 | 87 | 1005.6 |
| 20260902114105 | 59 | 195 | 2.0 | 5.0 | 0.00 | 0.03 | 0.00 | 87 | 1005.6 |
| 20260902113604 | 59 | 200 | 2.0 | 8.0 | 0.00 | 0.03 | 0.00 | 86 | 1005.6 |
| 20260902112603 | 59 | 197 | 2.0 | 8.0 | 0.00 | 0.03 | 0.00 | 86 | 1005.9 |
| 20260902112104 | 59 | 195 | 3.0 | 8.0 | 0.00 | 0.03 | 0.00 | 86 | 1006.0 |
| 20260902111604 | 59 | 195 | 2.0 | 5.0 | 0.00 | 0.03 | 0.00 | 86 | 1006.0 |
| 20260902110605 | 59 | 195 | 2.0 | 7.0 | 0.00 | 0.03 | 0.00 | 86 | 1006.1 |
| 20260902110104 | 59 | 195 | 2.0 | 9.0 | 0.00 | 0.03 | 0.00 | 86 | 1006.1 |
| 20260902105605 | 59 | 195 | 2.0 | 9.0 | 0.00 | 0.03 | 0.00 | 86 | 1006.1 |
| 20260902105106 | 59 | 195 | 2.0 | 5.0 | 0.00 | 0.03 | 0.00 | 86 | 1006.1 |
| 20260902104103 | 59 | 195 | 3.0 | 9.0 | 0.00 | 0.03 | 0.00 | 86 | 1006.2 |
| 20260902103604 | 59 | 232 | 2.0 | 6.0 | 0.00 | 0.03 | 0.00 | 86 | 1006.1 |
| 20260902103103 | 59 | 224 | 1.0 | 6.0 | 0.00 | 0.03 | 0.00 | 86 | 1006.2 |
| 20260902102604 | 59 | 195 | 3.0 | 6.0 | 0.00 | 0.03 | 0.00 | 86 | 1006.2 |
| 20260902102103 | 59 | 195 | 1.0 | 5.0 | 0.00 | 0.03 | 0.00 | 86 | 1006.3 |
| 20260902101604 | 59 | 195 | 2.0 | 6.0 | 0.00 | 0.03 | 0.00 | 87 | 1006.4 |
| 20260902101104 | 59 | 195 | 2.0 | 8.0 | 0.00 | 0.03 | 0.00 | 87 | 1006.2 |
| 20260902100604 | 59 | 224 | 3.0 | 8.0 | 0.00 | 0.03 | 0.00 | 86 | 1006.2 |
| 20260902100104 | 59 | 225 | 2.0 | 5.0 | 0.00 | 0.03 | 0.00 | 86 | 1006.2 |
| 20260902095605 | 59 | 195 | 1.0 | 3.0 | 0.00 | 0.03 | 0.00 | 86 | 1006.4 |
| 20260902095104 | 59 | 221 | 2.0 | 3.0 | 0.00 | 0.03 | 0.00 | 86 | 1006.5 |
| 20260902094603 | 59 | 195 | 1.0 | 8.0 | 0.00 | 0.03 | 0.00 | 86 | 1006.5 |
| 20260902094104 | 59 | 195 | 2.0 | 8.0 | 0.00 | 0.03 | 0.00 | 86 | 1006.6 |
| 20260902093104 | 59 | 195 | 2.0 | 6.0 | 0.00 | 0.03 | 0.00 | 86 | 1006.6 |